Time;durP1;ratioP1;P1;durP2;ratioP2;P2;SDS_P1;SDS_P2;PMS_P1;PMS_P2;Temp;Humidity;BMP_temperature;BMP_pressure;BME280_temperature;BME280_humidity;BME280_pressure;Samples;Min_cycle;Max_cycle;Signal;HPM_P1;HPM_P2
2021/04/22 00:03:01;;;;;;;19.30;11.05;;;;;;;14.56;81.87;98748.26;4294835;82;28614;-94
2021/04/22 00:09:07;;;;;;;21.75;12.37;;;;;;;14.33;83.29;98742.21;4288097;81;28588;-88
2021/04/22 00:15:15;;;;;;;20.37;12.95;;;;;;;14.47;79.03;98732.53;4229230;83;28585;-88
2021/04/22 00:21:17;;;;;;;19.07;11.60;;;;;;;14.26;82.44;98738.38;4226675;83;28649;-89
2021/04/22 00:27:19;;;;;;;17.37;10.78;;;;;;;14.04;87.17;98746.65;4123149;85;28641;-88
2021/04/22 00:33:23;;;;;;;19.85;10.65;;;;;;;14.15;86.44;98741.58;4244266;82;28642;-92
2021/04/22 00:39:25;;;;;;;19.32;12.55;;;;;;;14.17;87.27;98729.95;4242340;83;28578;-93
2021/04/22 00:45:29;;;;;;;25.82;13.45;;;;;;;14.23;85.18;98738.91;4269882;82;28594;-94
2021/04/22 00:51:32;;;;;;;21.93;13.90;;;;;;;14.14;84.02;98746.70;4253551;82;28629;-88
2021/04/22 00:57:35;;;;;;;24.92;14.98;;;;;;;13.91;85.86;98747.39;4252200;82;28684;-89
2021/04/22 01:03:37;;;;;;;22.13;12.45;;;;;;;13.48;93.49;98740.58;4258332;83;28645;-89
2021/04/22 01:09:39;;;;;;;26.60;13.40;;;;;;;13.50;94.54;98724.12;4198296;83;28665;-92
2021/04/22 01:15:41;;;;;;;24.52;14.13;;;;;;;13.52;90.70;98726.83;4271767;83;28654;-93
2021/04/22 01:21:44;;;;;;;26.90;15.13;;;;;;;13.52;88.60;98730.88;4268100;83;28674;-93
2021/04/22 01:27:46;;;;;;;25.15;16.15;;;;;;;13.31;92.74;98741.20;4269091;82;28616;-91
2021/04/22 01:33:48;;;;;;;28.75;16.23;;;;;;;13.07;92.94;98738.31;4270157;83;28569;-90
2021/04/22 01:39:52;;;;;;;26.90;16.07;;;;;;;13.28;90.86;98749.30;4269406;83;28661;-92
2021/04/22 01:45:54;;;;;;;28.35;15.85;;;;;;;13.30;92.70;98743.63;4270686;83;28578;-92
2021/04/22 01:51:56;;;;;;;32.70;18.52;;;;;;;13.56;89.03;98747.94;4270814;81;28648;-93
2021/04/22 01:57:59;;;;;;;32.90;18.55;;;;;;;13.84;86.58;98745.96;4241319;83;28628;-86
2021/04/22 02:04:02;;;;;;;34.05;19.45;;;;;;;13.92;87.51;98730.62;4265344;81;28593;-92
2021/04/22 02:10:07;;;;;;;29.60;17.42;;;;;;;13.98;87.09;98731.47;4278250;83;28604;-91
2021/04/22 02:16:09;;;;;;;29.63;17.33;;;;;;;13.93;88.15;98729.55;4231708;83;28573;-89
2021/04/22 02:22:11;;;;;;;40.08;18.87;;;;;;;14.16;85.39;98727.50;4234869;82;28581;-93
2021/04/22 02:28:13;;;;;;;31.65;17.90;;;;;;;13.98;86.46;98730.11;4240188;83;28583;-92
2021/04/22 02:34:16;;;;;;;34.70;19.25;;;;;;;14.05;84.33;98729.35;4250859;83;28598;-92
2021/04/22 02:40:23;;;;;;;29.63;17.40;;;;;;;14.15;84.85;98728.58;4265525;83;28653;-92
2021/04/22 02:46:25;;;;;;;28.23;16.80;;;;;;;14.03;90.36;98730.95;4254841;83;28590;-91
2021/04/22 02:52:27;;;;;;;35.05;19.82;;;;;;;14.22;88.11;98712.42;4274548;83;28582;-90
2021/04/22 02:58:29;;;;;;;34.23;19.50;;;;;;;14.05;93.98;98699.06;4262023;83;28626;-90
2021/04/22 03:04:31;;;;;;;32.65;18.67;;;;;;;13.96;95.66;98682.27;4233959;83;28633;-92
2021/04/22 03:10:34;;;;;;;27.62;16.30;;;;;;;13.84;96.72;98683.81;4245841;83;28586;-95
2021/04/22 03:16:37;;;;;;;28.83;16.30;;;;;;;13.43;100.00;98686.48;4258914;82;28590;-92
2021/04/22 03:22:40;;;;;;;27.82;17.32;;;;;;;13.55;99.07;98691.75;4184010;85;28587;-93
2021/04/22 03:28:42;;;;;;;32.25;19.25;;;;;;;13.64;98.26;98690.19;4205745;85;28577;-92
2021/04/22 03:34:45;;;;;;;33.48;19.07;;;;;;;12.81;100.00;98693.52;4181480;84;28583;-88
2021/04/22 03:40:47;;;;;;;28.27;17.50;;;;;;;13.49;97.28;98698.20;4195200;84;28580;-88
2021/04/22 03:46:49;;;;;;;29.98;16.93;;;;;;;13.29;97.50;98717.18;4171554;85;28590;-89
2021/04/22 03:52:52;;;;;;;28.57;17.15;;;;;;;13.34;94.81;98709.11;4167767;85;28618;-90
2021/04/22 03:58:54;;;;;;;28.47;17.52;;;;;;;12.79;100.00;98702.41;4165944;82;28629;-96
2021/04/22 04:04:56;;;;;;;30.97;18.17;;;;;;;13.16;98.44;98696.81;4173587;85;28591;-94
2021/04/22 04:10:59;;;;;;;31.75;18.82;;;;;;;12.79;100.00;98708.32;4169812;85;28598;-89
2021/04/22 04:17:03;;;;;;;30.85;17.05;;;;;;;12.70;100.00;98713.36;4161041;84;28586;-89
2021/04/22 04:23:05;;;;;;;27.07;15.55;;;;;;;12.87;100.00;98721.91;4169453;84;28694;-88
2021/04/22 04:29:07;;;;;;;27.98;16.77;;;;;;;12.56;100.00;98730.46;4167871;84;28555;-88
2021/04/22 04:35:11;;;;;;;30.55;17.40;;;;;;;12.86;100.00;98736.45;4189249;84;28614;-89
2021/04/22 04:41:13;;;;;;;28.62;17.75;;;;;;;13.15;100.00;98745.13;4146713;84;29037;-89
2021/04/22 04:47:15;;;;;;;27.27;16.00;;;;;;;13.36;100.00;98750.16;4171462;84;28609;-89
2021/04/22 04:53:18;;;;;;;24.98;14.40;;;;;;;13.62;100.00;98762.58;4167058;84;28611;-93
2021/04/22 05:14:11;;;;;;;21.23;13.18;;;;;;;14.38;90.79;98775.23;4028906;86;28583;-96
2021/04/22 05:34:45;;;;;;;25.50;13.65;;;;;;;14.64;86.53;98796.45;4245580;82;28565;-88
2021/04/22 05:40:49;;;;;;;21.12;13.60;;;;;;;14.64;84.93;98804.57;4257526;83;28523;-90
2021/04/22 05:46:52;;;;;;;25.57;15.23;;;;;;;14.26;85.63;98801.91;4184733;84;28592;-91
2021/04/22 05:52:54;;;;;;;24.85;15.85;;;;;;;14.48;83.40;98803.13;4245334;82;28597;-89
2021/04/22 05:58:56;;;;;;;23.35;14.63;;;;;;;14.34;81.91;98814.15;4217157;83;28605;-89
2021/04/22 06:05:01;;;;;;;25.23;15.70;;;;;;;14.23;81.88;98830.83;4196381;83;28608;-91
2021/04/22 06:11:21;;;;;;;27.65;16.32;;;;;;;14.76;75.73;98830.06;4613884;75;72854;-90
2021/04/22 06:17:26;;;;;;;26.37;16.45;;;;;;;14.83;77.01;98831.17;4486551;78;28563;-90
2021/04/22 06:23:28;;;;;;;27.35;16.90;;;;;;;15.08;71.30;98833.16;4470141;78;28566;-90
2021/04/22 06:29:30;;;;;;;27.67;16.00;;;;;;;15.12;70.26;98834.80;4507182;78;28642;-90
2021/04/22 06:35:32;;;;;;;26.30;15.43;;;;;;;15.19;68.88;98839.44;4502428;78;28600;-91
2021/04/22 06:41:35;;;;;;;27.32;16.20;;;;;;;15.24;69.32;98846.20;4521782;78;28662;-92
2021/04/22 06:47:37;;;;;;;28.83;17.37;;;;;;;15.58;67.99;98850.34;4519317;78;28571;-91
2021/04/22 06:53:40;;;;;;;29.40;16.87;;;;;;;15.37;68.47;98851.66;4514948;79;28649;-92
2021/04/22 06:59:44;;;;;;;29.77;17.42;;;;;;;15.55;66.76;98857.66;4523502;78;28587;-91
2021/04/22 07:05:46;;;;;;;33.40;19.45;;;;;;;15.71;65.84;98854.44;4524156;77;28673;-89
2021/04/22 07:11:48;;;;;;;29.65;16.57;;;;;;;15.46;66.68;98878.50;4504817;78;28609;-89
2021/04/22 07:17:51;;;;;;;31.27;18.45;;;;;;;16.32;60.85;98879.95;4479193;78;28595;-89
2021/04/22 07:23:54;;;;;;;30.62;19.10;;;;;;;16.01;61.70;98909.23;4507150;78;28594;-88
2021/04/22 07:29:56;;;;;;;28.47;17.27;;;;;;;15.83;60.96;98906.48;4518822;78;28950;-89
2021/04/22 07:35:59;;;;;;;29.45;17.62;;;;;;;15.75;63.86;98917.84;4527906;78;28598;-89
2021/04/22 07:42:02;;;;;;;28.80;16.95;;;;;;;16.00;64.18;98919.02;4488602;78;28629;-89
2021/04/22 07:48:06;;;;;;;32.33;18.45;;;;;;;15.81;64.62;98924.09;4505793;79;28676;-88
2021/04/22 07:54:08;;;;;;;35.03;19.75;;;;;;;15.78;65.58;98933.59;4459441;78;28585;-88
2021/04/22 08:00:15;;;;;;;31.45;19.55;;;;;;;15.59;64.50;98942.22;4476333;78;28605;-88
2021/04/22 08:06:18;;;;;;;36.33;19.45;;;;;;;14.94;66.53;98952.50;4522381;77;28712;-86
2021/04/22 08:12:20;;;;;;;30.88;17.73;;;;;;;14.10;74.35;98970.52;4497847;78;28630;-90
2021/04/22 08:18:30;;;;;;;30.27;17.55;;;;;;;14.82;68.62;98974.34;4509949;78;28616;-91
2021/04/22 08:24:34;;;;;;;31.60;18.20;;;;;;;14.03;69.44;98990.45;4488999;78;28620;-88
2021/04/22 08:30:45;;;;;;;28.75;17.73;;;;;;;14.06;71.22;98994.01;4513680;78;28586;-90
2021/04/22 08:36:47;;;;;;;33.35;20.30;;;;;;;13.93;72.06;98993.05;4504585;78;28607;-86
2021/04/22 08:42:50;;;;;;;28.77;18.60;;;;;;;13.09;83.33;99000.67;4510318;78;28570;-87
2021/04/22 08:48:53;;;;;;;16.40;10.53;;;;;;;12.44;90.29;99039.30;4503469;78;28518;-90
2021/04/22 08:54:55;;;;;;;11.20;7.55;;;;;;;11.89;92.63;99034.78;4514326;78;28573;-87
2021/04/22 09:01:09;;;;;;;11.73;7.40;;;;;;;11.47;88.55;99059.25;4507617;78;28590;-89
2021/04/22 09:07:11;;;;;;;7.85;4.83;;;;;;;11.06;100.00;99084.19;4507979;78;28662;-87
2021/04/22 09:13:17;;;;;;;7.15;4.22;;;;;;;10.82;98.29;99100.30;4478224;78;28575;-90
2021/04/22 09:19:26;;;;;;;6.58;3.30;;;;;;;10.89;94.97;99109.61;4466778;78;28667;-84
2021/04/22 09:25:29;;;;;;;5.22;3.25;;;;;;;10.91;92.52;99122.30;4510915;78;28570;-83
2021/04/22 09:31:31;;;;;;;7.85;4.50;;;;;;;11.05;92.32;99136.36;4500376;78;28561;-86
2021/04/22 09:37:47;;;;;;;7.58;4.15;;;;;;;10.33;100.00;99154.93;4501897;78;28617;-87
2021/04/22 09:44:08;;;;;;;6.15;4.08;;;;;;;11.28;95.48;99160.31;4487982;78;28634;-86
2021/04/22 09:50:14;;;;;;;5.12;2.90;;;;;;;11.12;100.00;99156.43;4500170;78;28590;-81
2021/04/22 09:56:17;;;;;;;5.45;3.05;;;;;;;10.66;100.00;99157.42;4504767;78;28595;-81
2021/04/22 10:02:19;;;;;;;4.80;2.85;;;;;;;11.90;100.00;99154.95;4494557;77;28622;-80
2021/04/22 10:08:23;;;;;;;3.92;2.50;;;;;;;12.04;90.58;99164.98;4440919;78;28574;-82
2021/04/22 10:14:35;;;;;;;5.60;3.35;;;;;;;12.01;95.11;99166.78;4511104;78;28648;-82
2021/04/22 10:20:39;;;;;;;6.33;3.98;;;;;;;11.77;93.14;99163.30;4481249;78;28664;-81
2021/04/22 10:26:44;;;;;;;7.80;4.53;;;;;;;12.59;88.38;99149.88;4382178;80;28591;-84
2021/04/22 10:32:50;;;;;;;8.30;5.20;;;;;;;13.46;78.42;99137.02;4368970;81;28573;-82
2021/04/22 10:38:55;;;;;;;11.25;6.72;;;;;;;14.12;73.42;99132.75;4310279;82;28583;-83
2021/04/22 10:44:58;;;;;;;11.75;5.62;;;;;;;14.55;71.56;99128.88;4321994;82;28606;-81
2021/04/22 10:51:00;;;;;;;10.68;5.60;;;;;;;15.14;64.58;99138.62;4374633;80;28651;-82
2021/04/22 10:57:10;;;;;;;8.50;4.70;;;;;;;14.95;66.20;99149.86;4362694;81;28612;-81
2021/04/22 11:10:57;;;;;;;10.15;4.72;;;;;;;15.29;61.31;99156.36;4343391;81;28591;-86
2021/04/22 11:16:59;;;;;;;14.65;7.72;;;;;;;15.14;61.92;99161.64;4386487;81;28572;-86
2021/04/22 11:23:16;;;;;;;14.18;7.30;;;;;;;15.24;63.65;99156.86;4378069;81;28762;-88
2021/04/22 11:29:19;;;;;;;14.28;8.98;;;;;;;15.84;61.01;99141.80;4377331;81;28576;-87
2021/04/22 11:35:25;;;;;;;16.52;8.98;;;;;;;15.54;58.26;99142.70;4379154;81;28588;-88
2021/04/22 11:41:32;;;;;;;16.65;9.00;;;;;;;15.43;61.84;99133.70;4379140;81;28570;-88
2021/04/22 11:47:36;;;;;;;17.82;10.35;;;;;;;15.29;61.21;99159.06;4380002;81;28603;-88
2021/04/22 11:53:42;;;;;;;14.10;8.90;;;;;;;15.34;62.29;99148.25;4328820;81;28617;-88
2021/04/22 11:59:53;;;;;;;14.18;8.80;;;;;;;14.32;62.58;99143.53;4321021;81;28646;-89
2021/04/22 12:06:05;;;;;;;16.07;9.53;;;;;;;15.04;59.70;99141.52;4339057;80;28554;-88
2021/04/22 12:27:51;;;;;;;13.30;7.78;;;;;;;14.83;57.60;99136.48;4267176;83;28619;-87
2021/04/22 12:33:55;;;;;;;20.40;9.30;;;;;;;14.71;58.96;99120.92;4304233;81;34396;-87
2021/04/22 12:39:58;;;;;;;12.03;7.72;;;;;;;14.83;58.36;99124.30;4320096;81;28641;-86
2021/04/22 12:46:12;;;;;;;12.75;8.23;;;;;;;14.83;56.51;99121.59;4358391;81;28574;-85
2021/04/22 12:52:22;;;;;;;14.25;7.65;;;;;;;15.53;55.75;99118.04;4325100;81;28609;-88
2021/04/22 12:58:34;;;;;;;14.85;8.33;;;;;;;15.02;55.64;99111.19;4333416;80;28643;-89
2021/04/22 13:04:37;;;;;;;16.65;8.23;;;;;;;15.38;55.28;99107.92;4330974;81;28655;-90
2021/04/22 13:10:42;;;;;;;14.63;8.73;;;;;;;15.11;52.29;99116.96;4384357;80;28580;-90
2021/04/22 13:16:57;;;;;;;15.40;8.08;;;;;;;14.72;54.98;99110.38;4388844;81;28571;-90
2021/04/22 13:22:59;;;;;;;19.37;9.83;;;;;;;14.39;52.66;99109.52;4328578;82;28598;-90
2021/04/22 13:29:15;;;;;;;17.82;8.03;;;;;;;15.12;54.24;99102.34;4398220;81;28633;-89
2021/04/22 13:35:17;;;;;;;14.60;7.62;;;;;;;13.71;49.41;99101.16;4318691;81;28621;-88
2021/04/22 13:41:19;;;;;;;15.65;8.10;;;;;;;14.52;49.08;99089.34;4397902;80;28571;-89
2021/04/22 13:47:24;;;;;;;20.30;8.15;;;;;;;14.72;50.94;99078.73;4393530;80;28617;-88
2021/04/22 13:53:28;;;;;;;13.53;7.72;;;;;;;15.03;49.42;99063.28;4374229;80;28658;-89
2021/04/22 13:59:31;;;;;;;15.40;7.87;;;;;;;14.57;48.47;99059.64;4399481;80;28653;-88
2021/04/22 14:05:39;;;;;;;15.70;8.18;;;;;;;14.49;49.97;99055.52;4413186;80;28587;-88
2021/04/22 14:11:44;;;;;;;15.35;7.33;;;;;;;14.43;47.79;99057.36;4398943;80;28583;-89
2021/04/22 14:17:46;;;;;;;16.57;7.40;;;;;;;14.01;47.70;99044.50;4343677;81;28587;-90
2021/04/22 14:23:49;;;;;;;20.37;8.05;;;;;;;14.32;48.34;99040.20;4334299;81;28672;-89
2021/04/22 14:29:51;;;;;;;16.42;7.72;;;;;;;14.66;47.76;99045.92;4389045;80;28596;-88
2021/04/22 14:35:53;;;;;;;20.55;7.65;;;;;;;14.19;46.14;99041.42;4399169;81;28962;-89
2021/04/22 14:41:57;;;;;;;14.28;7.45;;;;;;;14.13;45.43;99047.87;4394409;80;28571;-89
2021/04/22 14:48:00;;;;;;;17.42;7.00;;;;;;;14.32;46.05;99041.56;4391122;80;28982;-89
2021/04/22 14:54:13;;;;;;;14.45;6.58;;;;;;;14.76;44.23;99043.33;4373419;80;28594;-87
2021/04/22 15:00:21;;;;;;;;;;;;;;;14.53;44.11;99034.98;4416399;79;28591;-88
2021/04/22 15:06:40;;;;;;;13.72;6.20;;;;;;;14.28;44.57;99041.80;4381807;80;20256;-88
2021/04/22 15:13:23;;;;;;;14.05;5.92;;;;;;;14.56;43.49;99030.95;4333885;80;28621;-89
2021/04/22 15:19:44;;;;;;;10.10;4.42;;;;;;;14.54;42.19;99035.81;4351530;80;28607;-89
2021/04/22 15:40:42;;;;;;;5.72;2.30;;;;;;;14.52;27.63;99044.18;4359248;79;28671;-88
2021/04/22 15:46:45;;;;;;;;;;;;;;;14.41;27.54;99049.22;4381917;81;28619;-87
2021/04/22 15:52:51;;;;;;;7.78;2.50;;;;;;;14.51;28.69;99058.78;4408411;79;20242;-86
2021/04/22 15:58:53;;;;;;;8.58;2.50;;;;;;;14.31;28.83;99058.03;4394752;79;42703;-86
2021/04/22 16:04:55;;;;;;;5.78;2.10;;;;;;;13.99;28.96;99066.37;4412564;81;28616;-87
2021/04/22 16:10:59;;;;;;;4.53;2.10;;;;;;;13.92;28.05;99069.27;4489561;78;28606;-84
2021/04/22 16:17:01;;;;;;;4.87;2.20;;;;;;;14.30;28.14;99082.92;4488392;78;28596;-84
2021/04/22 16:23:04;;;;;;;5.22;2.10;;;;;;;13.91;28.99;99094.67;4460972;78;28587;-87
2021/04/22 16:29:07;;;;;;;4.05;2.27;;;;;;;13.88;29.02;99105.95;4335513;80;28696;-88
2021/04/22 16:35:11;;;;;;;6.42;2.35;;;;;;;13.59;28.94;99103.97;4379867;80;28575;-86
2021/04/22 16:41:14;;;;;;;6.20;2.37;;;;;;;14.07;29.33;99105.64;4476446;78;28626;-88
2021/04/22 16:48:01;;;;;;;6.55;2.30;;;;;;;13.51;29.21;99111.97;4464934;78;28673;-87
2021/04/22 16:54:26;;;;;;;7.87;2.30;;;;;;;13.71;29.22;99113.32;3850423;90;28646;-87
2021/04/22 17:00:31;;;;;;;8.15;2.55;;;;;;;13.91;30.00;99119.51;3950774;89;28635;-86
2021/04/22 17:06:33;;;;;;;4.17;2.25;;;;;;;14.08;30.66;99118.92;3827092;92;29010;-88
2021/04/22 17:12:36;;;;;;;7.65;2.10;;;;;;;14.16;31.50;99116.82;3942346;89;28617;-89
2021/04/22 17:18:39;;;;;;;5.55;2.20;;;;;;;13.36;31.10;99125.49;3968662;89;28602;-89
2021/04/22 17:24:41;;;;;;;4.80;2.02;;;;;;;13.61;29.63;99126.14;3947276;89;28996;-88
2021/04/22 17:30:43;;;;;;;3.50;1.90;;;;;;;13.17;29.52;99139.80;3930099;89;28622;-91
2021/04/22 17:36:48;;;;;;;6.05;2.33;;;;;;;13.31;29.78;99152.95;3949368;89;28642;-91
2021/04/22 17:42:50;;;;;;;5.92;2.60;;;;;;;13.30;29.70;99162.11;3929469;89;28673;-87
2021/04/22 17:48:53;;;;;;;8.53;2.30;;;;;;;12.97;30.51;99170.78;3906746;88;28615;-85
2021/04/22 17:54:56;;;;;;;8.65;2.50;;;;;;;12.86;31.32;99180.27;3984791;88;28597;-85
2021/04/22 18:00:59;;;;;;;7.55;2.70;;;;;;;12.67;31.79;99186.70;3979668;88;28675;-83
2021/04/22 18:07:01;;;;;;;10.78;3.58;;;;;;;12.44;31.73;99198.94;3961608;88;28634;-84
2021/04/22 18:13:05;;;;;;;9.13;3.92;;;;;;;12.26;31.91;99202.91;3978042;88;28658;-83
2021/04/22 18:19:07;;;;;;;9.20;4.00;;;;;;;12.16;32.17;99214.83;3984176;88;28603;-86
2021/04/22 18:25:12;;;;;;;11.22;4.87;;;;;;;11.98;33.86;99212.53;3993081;87;28591;-85
2021/04/22 18:31:14;;;;;;;7.15;3.52;;;;;;;11.87;32.48;99217.41;4007856;88;28612;-82
2021/04/22 18:37:19;;;;;;;8.03;3.65;;;;;;;11.61;35.72;99227.61;3992489;88;28611;-85
2021/04/22 18:43:22;;;;;;;11.20;4.30;;;;;;;11.36;36.28;99232.65;4004934;88;28618;-82
2021/04/22 18:49:26;;;;;;;8.00;3.70;;;;;;;11.14;36.47;99249.34;3998335;88;28606;-81
2021/04/22 18:55:33;;;;;;;11.40;3.43;;;;;;;10.85;37.59;99258.53;4009869;86;28579;-81
2021/04/22 19:01:36;;;;;;;12.30;4.62;;;;;;;10.63;39.10;99264.09;3981900;88;50471;-83
2021/04/22 19:07:38;;;;;;;16.50;4.53;;;;;;;10.84;36.21;99271.68;4032188;88;28650;-83
2021/04/22 19:13:41;;;;;;;14.80;4.72;;;;;;;10.63;37.50;99270.81;4025833;88;28610;-84
2021/04/22 19:19:44;;;;;;;13.13;4.67;;;;;;;10.54;39.19;99275.15;4007774;88;28653;-84
2021/04/22 19:25:47;;;;;;;11.50;4.25;;;;;;;10.33;37.45;99282.59;3927356;89;28685;-86
2021/04/22 19:31:50;;;;;;;12.50;4.08;;;;;;;10.38;36.33;99283.80;3954635;89;28620;-87
2021/04/22 19:38:10;;;;;;;14.18;5.05;;;;;;;10.30;35.58;99295.64;3893217;89;28646;-84
2021/04/22 19:44:15;;;;;;;12.18;4.40;;;;;;;10.63;35.30;99305.27;3929165;89;28647;-83
2021/04/22 19:50:21;;;;;;;11.15;4.42;;;;;;;10.79;35.95;99311.06;3922271;89;28620;-84
2021/04/22 19:56:24;;;;;;;11.93;5.08;;;;;;;10.63;36.33;99317.88;4012855;87;28582;-82
2021/04/22 20:02:27;;;;;;;14.98;5.17;;;;;;;10.82;35.97;99312.78;3982713;88;28613;-82
2021/04/22 20:08:31;;;;;;;18.77;7.95;;;;;;;10.91;38.50;99311.94;3963460;89;28604;-83
2021/04/22 20:14:38;;;;;;;17.52;7.42;;;;;;;10.95;42.57;99317.18;3963460;88;28636;-84
2021/04/22 20:20:40;;;;;;;21.80;7.70;;;;;;;10.83;42.97;99326.53;4050392;87;28646;-86
2021/04/22 20:26:43;;;;;;;16.17;7.03;;;;;;;10.79;48.69;99340.14;3966079;88;28655;-83
2021/04/22 20:32:47;;;;;;;19.73;7.42;;;;;;;10.80;47.52;99336.91;3983304;87;28671;-84
2021/04/22 20:38:50;;;;;;;18.92;7.15;;;;;;;11.19;40.50;99334.77;4011818;87;28587;-86
2021/04/22 20:44:56;;;;;;;16.32;6.60;;;;;;;11.19;41.42;99346.05;4052453;87;28575;-85
2021/04/22 20:50:59;;;;;;;14.65;6.17;;;;;;;11.15;43.29;99358.61;4064324;87;28622;-86
2021/04/22 20:57:07;;;;;;;15.03;7.00;;;;;;;11.09;39.58;99366.78;4041501;88;28667;-85
2021/04/22 21:03:09;;;;;;;15.25;6.60;;;;;;;11.28;41.34;99368.91;3997741;87;28591;-86
2021/04/22 21:09:12;;;;;;;17.00;6.80;;;;;;;11.34;40.23;99377.42;3956957;90;28579;-88
2021/04/22 21:15:15;;;;;;;14.83;5.83;;;;;;;11.48;39.83;99375.37;3974525;90;28652;-87
2021/04/22 21:21:18;;;;;;;13.10;5.10;;;;;;;11.45;40.88;99389.27;3999147;88;28655;-84
2021/04/22 21:27:21;;;;;;;13.43;5.40;;;;;;;11.21;40.52;99395.91;4008182;87;28681;-85
2021/04/22 21:33:24;;;;;;;14.90;6.33;;;;;;;10.87;41.74;99406.25;4008489;88;28582;-86
2021/04/22 21:39:28;;;;;;;17.23;7.40;;;;;;;10.39;42.33;99408.54;3992695;88;28600;-86
2021/04/22 21:45:32;;;;;;;21.85;8.18;;;;;;;10.52;42.36;99412.20;3982730;87;28636;-85
2021/04/22 21:51:39;;;;;;;19.83;7.80;;;;;;;10.32;42.81;99420.70;3993598;86;28614;-85
2021/04/22 21:57:43;;;;;;;19.90;7.45;;;;;;;10.26;43.37;99431.51;4059629;87;28611;-83
2021/04/22 22:03:45;;;;;;;18.57;7.17;;;;;;;10.20;44.59;99441.27;4037468;88;28586;-86
2021/04/22 22:09:47;;;;;;;19.02;6.83;;;;;;;9.96;45.34;99445.06;4037660;88;28615;-87
2021/04/22 22:15:50;;;;;;;20.92;6.70;;;;;;;10.07;44.89;99439.50;4037031;88;28610;-86
2021/04/22 22:21:54;;;;;;;17.23;6.67;;;;;;;10.09;45.75;99444.66;4037815;88;28616;-86
2021/04/22 22:27:56;;;;;;;18.55;6.20;;;;;;;10.11;45.76;99447.45;4059422;87;28574;-86
2021/04/22 22:33:59;;;;;;;19.73;7.08;;;;;;;9.72;48.08;99443.97;4075555;87;28572;-86
2021/04/22 22:40:09;;;;;;;16.20;6.25;;;;;;;9.58;47.14;99448.08;4015816;87;28669;-85
2021/04/22 22:46:13;;;;;;;21.20;7.05;;;;;;;9.32;48.46;99444.47;4011374;87;28642;-86
2021/04/22 22:52:15;;;;;;;19.50;6.37;;;;;;;9.26;49.75;99452.55;3982461;89;28613;-86
2021/04/22 22:58:21;;;;;;;15.45;6.20;;;;;;;9.25;49.24;99451.71;3974774;89;28697;-85
2021/04/22 23:04:23;;;;;;;18.37;6.35;;;;;;;9.13;49.52;99450.73;3941128;90;28572;-85
2021/04/22 23:10:26;;;;;;;15.45;6.22;;;;;;;9.08;50.88;99443.31;3897492;91;28627;-86
2021/04/22 23:16:28;;;;;;;24.07;6.30;;;;;;;8.91;50.44;99439.77;3850062;91;28595;-85
2021/04/22 23:22:31;;;;;;;18.35;6.50;;;;;;;8.84;51.13;99445.66;3863717;89;28570;-85
2021/04/22 23:28:34;;;;;;;20.82;6.85;;;;;;;8.70;50.84;99445.38;3888252;91;28591;-86
2021/04/22 23:34:36;;;;;;;19.70;6.10;;;;;;;8.64;51.32;99455.89;3859915;91;28615;-87
2021/04/22 23:40:44;;;;;;;17.92;5.70;;;;;;;8.44;52.86;99449.69;3846553;91;28626;-86
2021/04/22 23:46:46;;;;;;;19.07;5.97;;;;;;;8.30;53.43;99452.87;3841209;90;28651;-85
2021/04/22 23:52:49;;;;;;;22.75;6.30;;;;;;;8.28;53.69;99454.45;3868739;90;28597;-84
2021/04/22 23:58:51;;;;;;;18.85;7.25;;;;;;;8.14;57.15;99451.44;3916274;90;28598;-84
